CheckWX is a tool to help pilots better visualize weather data.  It is not intended as a substitute for an official pre-flight weather briefing.

08:56:00 UTC

KMCX METAR
White County Airport
Monticello, Indiana, USA
Current

11 hours ago

KMCX 172155Z AUTO 00000KT 10SM CLR 23/19 A2994 RMK AO2 T02310188
Observed
Jun-17 @ 21:55 UTC
Visibility
10 SM
Flight Rules
VFR
Cloud Levels
  • Clear skies
Temperature
23°C / 73°F
Dewpoint
19°C / 66°F
Humidity
78%
Altimeter
29.94" Hg
Pressure
1013.92 hPa
Previous

11 hours ago

KMCX 172135Z AUTO 00000KT 10SM SCT019 SCT025 23/19 A2994 RMK AO2 T02310189
Observed
Jun-17 @ 21:35 UTC
Visibility
10 SM
Flight Rules
VFR
Cloud Levels
  • Scattered at 1,900' AGL
  • Scattered at 2,500' AGL
Temperature
23°C / 73°F
Dewpoint
19°C / 66°F
Humidity
78%
Altimeter
29.94" Hg
Pressure
1013.92 hPa
Previous

12 hours ago

KMCX 172115Z AUTO 00000KT 10SM SCT019 23/19 A2994 RMK AO2 T02310185
Observed
Jun-17 @ 21:15 UTC
Visibility
10 SM
Flight Rules
VFR
Cloud Levels
  • Scattered at 1,900' AGL
Temperature
23°C / 73°F
Dewpoint
19°C / 66°F
Humidity
78%
Altimeter
29.94" Hg
Pressure
1013.92 hPa